sensor_id;sensor_type;location;lat;lon;timestamp;P1;durP1;ratioP1;P2;durP2;ratioP2
5499;SDS011;2772;42.700;23.304;2022-11-10T00:00:54;62.13;;;32.07;;
5499;SDS011;2772;42.700;23.304;2022-11-10T00:03:21;67.60;;;33.50;;
5499;SDS011;2772;42.700;23.304;2022-11-10T00:05:48;54.83;;;31.00;;
5499;SDS011;2772;42.700;23.304;2022-11-10T00:08:15;59.47;;;31.50;;
5499;SDS011;2772;42.700;23.304;2022-11-10T00:10:42;70.03;;;33.60;;
5499;SDS011;2772;42.700;23.304;2022-11-10T00:13:27;63.10;;;33.10;;
5499;SDS011;2772;42.700;23.304;2022-11-10T00:15:59;66.97;;;35.53;;
5499;SDS011;2772;42.700;23.304;2022-11-10T00:18:44;69.30;;;33.83;;
5499;SDS011;2772;42.700;23.304;2022-11-10T00:21:11;101.53;;;50.20;;
5499;SDS011;2772;42.700;23.304;2022-11-10T00:23:40;104.40;;;50.13;;
5499;SDS011;2772;42.700;23.304;2022-11-10T00:26:11;129.60;;;59.00;;
5499;SDS011;2772;42.700;23.304;2022-11-10T00:28:42;106.83;;;50.30;;
5499;SDS011;2772;42.700;23.304;2022-11-10T00:31:09;106.63;;;52.50;;
5499;SDS011;2772;42.700;23.304;2022-11-10T00:33:36;101.20;;;47.30;;
5499;SDS011;2772;42.700;23.304;2022-11-10T00:36:04;76.53;;;37.03;;
5499;SDS011;2772;42.700;23.304;2022-11-10T00:38:31;72.77;;;36.50;;
5499;SDS011;2772;42.700;23.304;2022-11-10T00:40:58;78.90;;;39.23;;
5499;SDS011;2772;42.700;23.304;2022-11-10T00:43:25;78.50;;;39.47;;
5499;SDS011;2772;42.700;23.304;2022-11-10T00:45:54;62.53;;;35.77;;
5499;SDS011;2772;42.700;23.304;2022-11-10T00:48:21;69.60;;;36.70;;
5499;SDS011;2772;42.700;23.304;2022-11-10T00:50:48;64.73;;;35.33;;
5499;SDS011;2772;42.700;23.304;2022-11-10T00:53:14;66.10;;;35.27;;
5499;SDS011;2772;42.700;23.304;2022-11-10T00:55:41;78.47;;;38.10;;
5499;SDS011;2772;42.700;23.304;2022-11-10T00:58:08;74.27;;;36.40;;
5499;SDS011;2772;42.700;23.304;2022-11-10T01:00:35;68.17;;;35.47;;
5499;SDS011;2772;42.700;23.304;2022-11-10T01:03:03;66.47;;;34.50;;
5499;SDS011;2772;42.700;23.304;2022-11-10T01:05:30;67.57;;;35.93;;
5499;SDS011;2772;42.700;23.304;2022-11-10T01:07:57;56.17;;;32.30;;
5499;SDS011;2772;42.700;23.304;2022-11-10T01:10:24;57.07;;;30.87;;
5499;SDS011;2772;42.700;23.304;2022-11-10T01:12:51;60.10;;;32.00;;
5499;SDS011;2772;42.700;23.304;2022-11-10T01:15:18;56.27;;;31.70;;
5499;SDS011;2772;42.700;23.304;2022-11-10T01:17:45;54.93;;;30.73;;
5499;SDS011;2772;42.700;23.304;2022-11-10T01:20:14;60.23;;;31.50;;
5499;SDS011;2772;42.700;23.304;2022-11-10T01:22:41;59.60;;;31.40;;
5499;SDS011;2772;42.700;23.304;2022-11-10T01:25:08;58.50;;;30.20;;
5499;SDS011;2772;42.700;23.304;2022-11-10T01:27:35;54.37;;;30.00;;
5499;SDS011;2772;42.700;23.304;2022-11-10T01:30:02;51.97;;;29.20;;
5499;SDS011;2772;42.700;23.304;2022-11-10T01:32:29;59.13;;;31.73;;
5499;SDS011;2772;42.700;23.304;2022-11-10T01:34:56;61.30;;;31.33;;
5499;SDS011;2772;42.700;23.304;2022-11-10T01:37:24;64.83;;;33.60;;
5499;SDS011;2772;42.700;23.304;2022-11-10T01:39:51;57.77;;;31.77;;
5499;SDS011;2772;42.700;23.304;2022-11-10T01:42:22;55.93;;;31.37;;
5499;SDS011;2772;42.700;23.304;2022-11-10T01:47:54;58.40;;;33.20;;
5499;SDS011;2772;42.700;23.304;2022-11-10T01:50:25;59.17;;;31.73;;
5499;SDS011;2772;42.700;23.304;2022-11-10T01:52:56;53.73;;;31.17;;
5499;SDS011;2772;42.700;23.304;2022-11-10T01:55:27;58.67;;;30.00;;
5499;SDS011;2772;42.700;23.304;2022-11-10T01:57:55;55.53;;;30.50;;
5499;SDS011;2772;42.700;23.304;2022-11-10T02:00:22;52.83;;;30.27;;
5499;SDS011;2772;42.700;23.304;2022-11-10T02:02:50;55.80;;;30.07;;
5499;SDS011;2772;42.700;23.304;2022-11-10T02:05:21;55.17;;;29.97;;
5499;SDS011;2772;42.700;23.304;2022-11-10T02:07:48;73.17;;;31.80;;
5499;SDS011;2772;42.700;23.304;2022-11-10T02:10:18;59.67;;;30.27;;
5499;SDS011;2772;42.700;23.304;2022-11-10T02:12:46;55.97;;;30.77;;
5499;SDS011;2772;42.700;23.304;2022-11-10T02:15:14;60.07;;;29.57;;
5499;SDS011;2772;42.700;23.304;2022-11-10T02:17:42;59.07;;;32.20;;
5499;SDS011;2772;42.700;23.304;2022-11-10T02:20:11;55.03;;;30.23;;
5499;SDS011;2772;42.700;23.304;2022-11-10T02:22:41;56.00;;;31.97;;
5499;SDS011;2772;42.700;23.304;2022-11-10T02:25:08;57.90;;;32.03;;
5499;SDS011;2772;42.700;23.304;2022-11-10T02:27:38;63.83;;;31.67;;
5499;SDS011;2772;42.700;23.304;2022-11-10T02:30:05;62.63;;;33.23;;
5499;SDS011;2772;42.700;23.304;2022-11-10T02:32:33;76.47;;;37.47;;
5499;SDS011;2772;42.700;23.304;2022-11-10T02:35:00;78.23;;;37.27;;
5499;SDS011;2772;42.700;23.304;2022-11-10T02:37:27;71.00;;;37.70;;
5499;SDS011;2772;42.700;23.304;2022-11-10T02:39:55;76.37;;;37.33;;
5499;SDS011;2772;42.700;23.304;2022-11-10T02:42:22;79.37;;;38.90;;
5499;SDS011;2772;42.700;23.304;2022-11-10T02:44:48;74.57;;;37.60;;
5499;SDS011;2772;42.700;23.304;2022-11-10T02:47:15;67.13;;;36.60;;
5499;SDS011;2772;42.700;23.304;2022-11-10T02:49:42;61.77;;;33.80;;
5499;SDS011;2772;42.700;23.304;2022-11-10T02:52:09;68.27;;;34.03;;
5499;SDS011;2772;42.700;23.304;2022-11-10T02:54:36;61.13;;;32.20;;
5499;SDS011;2772;42.700;23.304;2022-11-10T02:57:04;53.37;;;29.40;;
5499;SDS011;2772;42.700;23.304;2022-11-10T02:59:31;54.47;;;29.43;;
5499;SDS011;2772;42.700;23.304;2022-11-10T03:01:58;51.10;;;30.63;;
5499;SDS011;2772;42.700;23.304;2022-11-10T03:04:24;59.60;;;30.90;;
5499;SDS011;2772;42.700;23.304;2022-11-10T03:06:51;59.07;;;32.73;;
5499;SDS011;2772;42.700;23.304;2022-11-10T03:09:18;63.73;;;34.07;;
5499;SDS011;2772;42.700;23.304;2022-11-10T03:11:44;62.10;;;32.63;;
5499;SDS011;2772;42.700;23.304;2022-11-10T03:14:12;63.60;;;33.97;;
5499;SDS011;2772;42.700;23.304;2022-11-10T03:16:39;63.63;;;32.90;;
5499;SDS011;2772;42.700;23.304;2022-11-10T03:19:06;72.23;;;36.87;;
5499;SDS011;2772;42.700;23.304;2022-11-10T03:21:33;72.70;;;37.63;;
5499;SDS011;2772;42.700;23.304;2022-11-10T03:23:59;87.63;;;44.20;;
5499;SDS011;2772;42.700;23.304;2022-11-10T03:26:26;86.03;;;44.07;;
5499;SDS011;2772;42.700;23.304;2022-11-10T03:28:53;87.93;;;44.17;;
5499;SDS011;2772;42.700;23.304;2022-11-10T03:31:21;83.73;;;44.00;;
5499;SDS011;2772;42.700;23.304;2022-11-10T03:33:47;101.37;;;49.23;;
5499;SDS011;2772;42.700;23.304;2022-11-10T03:36:14;85.83;;;45.70;;
5499;SDS011;2772;42.700;23.304;2022-11-10T03:38:41;92.27;;;43.03;;
5499;SDS011;2772;42.700;23.304;2022-11-10T03:41:08;95.83;;;45.13;;
5499;SDS011;2772;42.700;23.304;2022-11-10T03:43:34;86.70;;;42.90;;
5499;SDS011;2772;42.700;23.304;2022-11-10T03:46:01;74.93;;;36.37;;
5499;SDS011;2772;42.700;23.304;2022-11-10T03:48:29;75.63;;;40.20;;
5499;SDS011;2772;42.700;23.304;2022-11-10T03:50:56;78.93;;;38.80;;
5499;SDS011;2772;42.700;23.304;2022-11-10T03:53:22;94.40;;;40.53;;
5499;SDS011;2772;42.700;23.304;2022-11-10T03:55:49;74.73;;;37.80;;
5499;SDS011;2772;42.700;23.304;2022-11-10T03:58:16;69.33;;;37.37;;
5499;SDS011;2772;42.700;23.304;2022-11-10T04:00:43;77.80;;;36.67;;
5499;SDS011;2772;42.700;23.304;2022-11-10T04:03:09;71.03;;;36.20;;
5499;SDS011;2772;42.700;23.304;2022-11-10T04:05:37;69.17;;;34.43;;
5499;SDS011;2772;42.700;23.304;2022-11-10T04:08:22;67.17;;;33.70;;
5499;SDS011;2772;42.700;23.304;2022-11-10T04:11:06;63.50;;;32.30;;
5499;SDS011;2772;42.700;23.304;2022-11-10T04:13:32;55.13;;;28.87;;
5499;SDS011;2772;42.700;23.304;2022-11-10T04:16:16;59.53;;;28.80;;
5499;SDS011;2772;42.700;23.304;2022-11-10T04:18:43;57.93;;;29.97;;
5499;SDS011;2772;42.700;23.304;2022-11-10T04:21:11;57.23;;;31.77;;
5499;SDS011;2772;42.700;23.304;2022-11-10T04:23:38;54.93;;;29.33;;
5499;SDS011;2772;42.700;23.304;2022-11-10T04:26:05;58.93;;;30.33;;
5499;SDS011;2772;42.700;23.304;2022-11-10T04:28:52;57.40;;;30.47;;
5499;SDS011;2772;42.700;23.304;2022-11-10T04:31:21;53.03;;;28.50;;
5499;SDS011;2772;42.700;23.304;2022-11-10T04:33:49;50.20;;;28.03;;
5499;SDS011;2772;42.700;23.304;2022-11-10T04:36:18;55.50;;;28.10;;
5499;SDS011;2772;42.700;23.304;2022-11-10T04:38:46;48.97;;;27.20;;
5499;SDS011;2772;42.700;23.304;2022-11-10T04:41:13;48.50;;;27.20;;
5499;SDS011;2772;42.700;23.304;2022-11-10T04:43:40;47.30;;;27.50;;
5499;SDS011;2772;42.700;23.304;2022-11-10T04:46:08;47.33;;;26.40;;
5499;SDS011;2772;42.700;23.304;2022-11-10T04:48:43;51.37;;;27.40;;
5499;SDS011;2772;42.700;23.304;2022-11-10T04:51:10;48.03;;;27.80;;
5499;SDS011;2772;42.700;23.304;2022-11-10T04:53:38;51.03;;;26.70;;
5499;SDS011;2772;42.700;23.304;2022-11-10T04:56:05;53.83;;;27.30;;
5499;SDS011;2772;42.700;23.304;2022-11-10T04:58:32;51.10;;;27.50;;
5499;SDS011;2772;42.700;23.304;2022-11-10T05:00:59;55.40;;;29.23;;
5499;SDS011;2772;42.700;23.304;2022-11-10T05:03:26;57.90;;;29.77;;
5499;SDS011;2772;42.700;23.304;2022-11-10T05:05:52;57.23;;;29.43;;
5499;SDS011;2772;42.700;23.304;2022-11-10T05:08:19;65.10;;;30.03;;
5499;SDS011;2772;42.700;23.304;2022-11-10T05:10:47;54.67;;;29.07;;
5499;SDS011;2772;42.700;23.304;2022-11-10T05:13:14;60.10;;;30.93;;
5499;SDS011;2772;42.700;23.304;2022-11-10T05:15:41;66.47;;;31.53;;
5499;SDS011;2772;42.700;23.304;2022-11-10T05:18:07;61.27;;;30.50;;
5499;SDS011;2772;42.700;23.304;2022-11-10T05:20:34;63.57;;;30.30;;
5499;SDS011;2772;42.700;23.304;2022-11-10T05:23:01;54.97;;;30.17;;
5499;SDS011;2772;42.700;23.304;2022-11-10T05:25:45;53.20;;;29.63;;
5499;SDS011;2772;42.700;23.304;2022-11-10T05:28:14;58.20;;;29.93;;
5499;SDS011;2772;42.700;23.304;2022-11-10T05:30:41;63.23;;;29.80;;
5499;SDS011;2772;42.700;23.304;2022-11-10T05:33:08;52.40;;;26.70;;
5499;SDS011;2772;42.700;23.304;2022-11-10T05:35:36;57.10;;;29.73;;
5499;SDS011;2772;42.700;23.304;2022-11-10T05:38:03;54.67;;;28.93;;
5499;SDS011;2772;42.700;23.304;2022-11-10T05:40:31;60.97;;;30.00;;
5499;SDS011;2772;42.700;23.304;2022-11-10T05:42:59;57.90;;;29.80;;
5499;SDS011;2772;42.700;23.304;2022-11-10T05:45:27;59.93;;;30.37;;
5499;SDS011;2772;42.700;23.304;2022-11-10T05:47:54;53.80;;;29.60;;
5499;SDS011;2772;42.700;23.304;2022-11-10T05:50:22;56.33;;;29.70;;
5499;SDS011;2772;42.700;23.304;2022-11-10T05:52:50;64.33;;;29.67;;
5499;SDS011;2772;42.700;23.304;2022-11-10T05:55:19;56.30;;;29.27;;
5499;SDS011;2772;42.700;23.304;2022-11-10T05:57:47;53.77;;;28.83;;
5499;SDS011;2772;42.700;23.304;2022-11-10T06:00:18;48.10;;;28.60;;
5499;SDS011;2772;42.700;23.304;2022-11-10T06:02:55;58.53;;;28.20;;
5499;SDS011;2772;42.700;23.304;2022-11-10T06:05:23;48.60;;;27.37;;
5499;SDS011;2772;42.700;23.304;2022-11-10T06:07:49;63.47;;;30.80;;
5499;SDS011;2772;42.700;23.304;2022-11-10T06:10:16;55.40;;;28.37;;
5499;SDS011;2772;42.700;23.304;2022-11-10T06:12:43;65.83;;;27.70;;
5499;SDS011;2772;42.700;23.304;2022-11-10T06:15:10;49.27;;;27.47;;
5499;SDS011;2772;42.700;23.304;2022-11-10T06:17:39;49.70;;;27.43;;
5499;SDS011;2772;42.700;23.304;2022-11-10T06:20:06;72.93;;;26.90;;
5499;SDS011;2772;42.700;23.304;2022-11-10T06:22:33;47.70;;;24.73;;
5499;SDS011;2772;42.700;23.304;2022-11-10T06:25:00;48.90;;;25.27;;
5499;SDS011;2772;42.700;23.304;2022-11-10T06:27:27;66.30;;;32.30;;
5499;SDS011;2772;42.700;23.304;2022-11-10T06:29:53;64.70;;;32.00;;
5499;SDS011;2772;42.700;23.304;2022-11-10T06:32:20;67.63;;;33.63;;
5499;SDS011;2772;42.700;23.304;2022-11-10T06:34:48;93.00;;;41.80;;
5499;SDS011;2772;42.700;23.304;2022-11-10T06:37:15;101.97;;;39.10;;
5499;SDS011;2772;42.700;23.304;2022-11-10T06:39:42;92.73;;;39.77;;
5499;SDS011;2772;42.700;23.304;2022-11-10T06:42:08;110.43;;;41.50;;
5499;SDS011;2772;42.700;23.304;2022-11-10T06:44:35;92.70;;;40.77;;
5499;SDS011;2772;42.700;23.304;2022-11-10T06:47:02;91.27;;;41.10;;
5499;SDS011;2772;42.700;23.304;2022-11-10T06:49:29;93.13;;;40.90;;
5499;SDS011;2772;42.700;23.304;2022-11-10T06:51:57;87.40;;;40.83;;
5499;SDS011;2772;42.700;23.304;2022-11-10T06:54:23;85.73;;;40.23;;
5499;SDS011;2772;42.700;23.304;2022-11-10T06:56:50;84.10;;;40.33;;
5499;SDS011;2772;42.700;23.304;2022-11-10T06:59:17;89.37;;;41.43;;
5499;SDS011;2772;42.700;23.304;2022-11-10T07:01:43;94.43;;;41.00;;
5499;SDS011;2772;42.700;23.304;2022-11-10T07:04:10;90.03;;;42.83;;
5499;SDS011;2772;42.700;23.304;2022-11-10T07:06:39;92.40;;;46.53;;
5499;SDS011;2772;42.700;23.304;2022-11-10T07:09:07;96.60;;;43.37;;
5499;SDS011;2772;42.700;23.304;2022-11-10T07:11:34;86.90;;;43.07;;
5499;SDS011;2772;42.700;23.304;2022-11-10T07:14:01;85.87;;;41.47;;
5499;SDS011;2772;42.700;23.304;2022-11-10T07:16:28;92.90;;;42.87;;
5499;SDS011;2772;42.700;23.304;2022-11-10T07:18:55;85.10;;;41.47;;
5499;SDS011;2772;42.700;23.304;2022-11-10T07:21:21;98.33;;;46.57;;
5499;SDS011;2772;42.700;23.304;2022-11-10T07:23:48;105.60;;;43.97;;
5499;SDS011;2772;42.700;23.304;2022-11-10T07:26:16;95.97;;;43.40;;
5499;SDS011;2772;42.700;23.304;2022-11-10T07:28:43;93.73;;;39.43;;
5499;SDS011;2772;42.700;23.304;2022-11-10T07:31:10;85.90;;;38.83;;
5499;SDS011;2772;42.700;23.304;2022-11-10T07:33:36;72.33;;;36.63;;
5499;SDS011;2772;42.700;23.304;2022-11-10T07:36:04;85.80;;;40.40;;
5499;SDS011;2772;42.700;23.304;2022-11-10T07:38:31;104.67;;;45.50;;
5499;SDS011;2772;42.700;23.304;2022-11-10T07:40:58;112.60;;;48.47;;
5499;SDS011;2772;42.700;23.304;2022-11-10T07:43:26;101.00;;;46.97;;
5499;SDS011;2772;42.700;23.304;2022-11-10T07:45:53;87.70;;;45.03;;
5499;SDS011;2772;42.700;23.304;2022-11-10T07:48:19;128.67;;;47.73;;
5499;SDS011;2772;42.700;23.304;2022-11-10T07:50:46;97.10;;;45.67;;
5499;SDS011;2772;42.700;23.304;2022-11-10T07:53:14;97.20;;;45.70;;
5499;SDS011;2772;42.700;23.304;2022-11-10T07:55:44;90.80;;;43.10;;
5499;SDS011;2772;42.700;23.304;2022-11-10T07:58:12;87.83;;;44.00;;
5499;SDS011;2772;42.700;23.304;2022-11-10T08:00:42;86.83;;;43.40;;
5499;SDS011;2772;42.700;23.304;2022-11-10T08:03:10;93.47;;;44.50;;
5499;SDS011;2772;42.700;23.304;2022-11-10T08:05:38;93.17;;;45.50;;
5499;SDS011;2772;42.700;23.304;2022-11-10T08:08:05;104.47;;;46.90;;
5499;SDS011;2772;42.700;23.304;2022-11-10T08:10:32;96.23;;;47.10;;
5499;SDS011;2772;42.700;23.304;2022-11-10T08:13:00;99.07;;;47.47;;
5499;SDS011;2772;42.700;23.304;2022-11-10T08:15:29;86.17;;;42.77;;
5499;SDS011;2772;42.700;23.304;2022-11-10T08:17:59;84.37;;;43.17;;
5499;SDS011;2772;42.700;23.304;2022-11-10T08:20:26;91.57;;;43.30;;
5499;SDS011;2772;42.700;23.304;2022-11-10T08:22:56;94.87;;;45.67;;
5499;SDS011;2772;42.700;23.304;2022-11-10T08:25:24;93.17;;;43.00;;
5499;SDS011;2772;42.700;23.304;2022-11-10T08:27:55;92.40;;;46.47;;
5499;SDS011;2772;42.700;23.304;2022-11-10T08:30:23;94.07;;;46.10;;
5499;SDS011;2772;42.700;23.304;2022-11-10T08:32:52;91.77;;;46.40;;
5499;SDS011;2772;42.700;23.304;2022-11-10T08:35:21;97.13;;;49.33;;
5499;SDS011;2772;42.700;23.304;2022-11-10T08:37:48;104.33;;;48.10;;
5499;SDS011;2772;42.700;23.304;2022-11-10T08:40:15;97.37;;;45.53;;
5499;SDS011;2772;42.700;23.304;2022-11-10T08:42:43;101.33;;;48.63;;
5499;SDS011;2772;42.700;23.304;2022-11-10T08:45:10;97.77;;;48.90;;
5499;SDS011;2772;42.700;23.304;2022-11-10T08:47:37;81.77;;;44.90;;
5499;SDS011;2772;42.700;23.304;2022-11-10T08:50:04;90.40;;;45.87;;
5499;SDS011;2772;42.700;23.304;2022-11-10T08:52:32;78.10;;;43.03;;
5499;SDS011;2772;42.700;23.304;2022-11-10T08:54:59;88.07;;;44.70;;
5499;SDS011;2772;42.700;23.304;2022-11-10T08:57:26;95.17;;;44.47;;
5499;SDS011;2772;42.700;23.304;2022-11-10T08:59:53;83.77;;;45.07;;
5499;SDS011;2772;42.700;23.304;2022-11-10T09:02:20;104.82;;;47.97;;
5499;SDS011;2772;42.700;23.304;2022-11-10T09:04:46;92.10;;;46.03;;
5499;SDS011;2772;42.700;23.304;2022-11-10T09:07:13;93.70;;;48.50;;
5499;SDS011;2772;42.700;23.304;2022-11-10T09:09:41;108.93;;;50.63;;
5499;SDS011;2772;42.700;23.304;2022-11-10T09:12:08;105.27;;;51.50;;
5499;SDS011;2772;42.700;23.304;2022-11-10T09:14:35;110.87;;;51.53;;
5499;SDS011;2772;42.700;23.304;2022-11-10T09:17:01;108.90;;;50.50;;
5499;SDS011;2772;42.700;23.304;2022-11-10T09:19:28;104.40;;;51.83;;
5499;SDS011;2772;42.700;23.304;2022-11-10T09:21:55;82.03;;;44.40;;
5499;SDS011;2772;42.700;23.304;2022-11-10T09:24:22;82.40;;;43.10;;
5499;SDS011;2772;42.700;23.304;2022-11-10T09:26:50;101.57;;;45.93;;
5499;SDS011;2772;42.700;23.304;2022-11-10T09:29:17;93.07;;;45.37;;
5499;SDS011;2772;42.700;23.304;2022-11-10T09:31:44;96.20;;;46.20;;
5499;SDS011;2772;42.700;23.304;2022-11-10T09:34:10;87.20;;;44.33;;
5499;SDS011;2772;42.700;23.304;2022-11-10T09:36:37;120.77;;;52.80;;
5499;SDS011;2772;42.700;23.304;2022-11-10T09:39:04;102.97;;;46.33;;
5499;SDS011;2772;42.700;23.304;2022-11-10T09:41:31;96.80;;;46.90;;
5499;SDS011;2772;42.700;23.304;2022-11-10T09:44:01;95.13;;;47.20;;
5499;SDS011;2772;42.700;23.304;2022-11-10T09:46:31;84.87;;;44.93;;
5499;SDS011;2772;42.700;23.304;2022-11-10T09:49:02;91.43;;;45.27;;
5499;SDS011;2772;42.700;23.304;2022-11-10T09:51:35;78.63;;;41.70;;
5499;SDS011;2772;42.700;23.304;2022-11-10T09:54:05;82.17;;;43.20;;
5499;SDS011;2772;42.700;23.304;2022-11-10T09:56:47;94.10;;;42.90;;
5499;SDS011;2772;42.700;23.304;2022-11-10T09:59:22;91.78;;;47.67;;
5499;SDS011;2772;42.700;23.304;2022-11-10T10:01:52;86.83;;;45.63;;
5499;SDS011;2772;42.700;23.304;2022-11-10T10:04:29;78.40;;;41.93;;
5499;SDS011;2772;42.700;23.304;2022-11-10T10:07:12;99.37;;;46.03;;
5499;SDS011;2772;42.700;23.304;2022-11-10T10:09:44;82.40;;;41.63;;
5499;SDS011;2772;42.700;23.304;2022-11-10T10:12:21;73.30;;;39.17;;
5499;SDS011;2772;42.700;23.304;2022-11-10T10:15:16;66.17;;;36.27;;
5499;SDS011;2772;42.700;23.304;2022-11-10T10:17:51;71.07;;;36.93;;
5499;SDS011;2772;42.700;23.304;2022-11-10T10:20:29;62.90;;;35.60;;
5499;SDS011;2772;42.700;23.304;2022-11-10T10:23:08;67.33;;;38.53;;
5499;SDS011;2772;42.700;23.304;2022-11-10T10:25:42;63.03;;;35.97;;
5499;SDS011;2772;42.700;23.304;2022-11-10T10:28:12;71.70;;;36.70;;
5499;SDS011;2772;42.700;23.304;2022-11-10T10:30:55;76.87;;;41.17;;
5499;SDS011;2772;42.700;23.304;2022-11-10T10:33:32;80.30;;;42.73;;
5499;SDS011;2772;42.700;23.304;2022-11-10T10:35:59;63.67;;;36.00;;
5499;SDS011;2772;42.700;23.304;2022-11-10T10:38:33;92.30;;;42.30;;
5499;SDS011;2772;42.700;23.304;2022-11-10T10:41:09;74.80;;;38.43;;
5499;SDS011;2772;42.700;23.304;2022-11-10T10:43:40;64.80;;;38.10;;
5499;SDS011;2772;42.700;23.304;2022-11-10T10:46:13;70.50;;;38.47;;
5499;SDS011;2772;42.700;23.304;2022-11-10T10:48:41;66.63;;;37.57;;
5499;SDS011;2772;42.700;23.304;2022-11-10T10:51:08;64.03;;;35.60;;
5499;SDS011;2772;42.700;23.304;2022-11-10T10:53:43;62.30;;;35.07;;
5499;SDS011;2772;42.700;23.304;2022-11-10T10:56:14;65.73;;;34.70;;
5499;SDS011;2772;42.700;23.304;2022-11-10T10:58:51;61.10;;;34.37;;
5499;SDS011;2772;42.700;23.304;2022-11-10T11:01:23;61.23;;;34.07;;
5499;SDS011;2772;42.700;23.304;2022-11-10T11:03:54;68.40;;;35.30;;
5499;SDS011;2772;42.700;23.304;2022-11-10T11:06:21;57.90;;;35.20;;
5499;SDS011;2772;42.700;23.304;2022-11-10T11:08:54;63.30;;;37.13;;
5499;SDS011;2772;42.700;23.304;2022-11-10T11:11:23;63.03;;;35.87;;
5499;SDS011;2772;42.700;23.304;2022-11-10T11:13:51;64.67;;;35.20;;
5499;SDS011;2772;42.700;23.304;2022-11-10T11:16:18;59.00;;;34.30;;
5499;SDS011;2772;42.700;23.304;2022-11-10T11:18:46;62.23;;;33.93;;
5499;SDS011;2772;42.700;23.304;2022-11-10T11:21:16;57.10;;;34.07;;
5499;SDS011;2772;42.700;23.304;2022-11-10T11:24:09;59.70;;;33.67;;
5499;SDS011;2772;42.700;23.304;2022-11-10T11:26:47;73.40;;;37.17;;
5499;SDS011;2772;42.700;23.304;2022-11-10T11:29:28;56.93;;;33.97;;
5499;SDS011;2772;42.700;23.304;2022-11-10T11:32:11;125.30;;;65.20;;
5499;SDS011;2772;42.700;23.304;2022-11-10T11:34:53;288.87;;;160.60;;
5499;SDS011;2772;42.700;23.304;2022-11-10T11:37:26;160.80;;;92.07;;
5499;SDS011;2772;42.700;23.304;2022-11-10T11:40:03;194.30;;;105.83;;
5499;SDS011;2772;42.700;23.304;2022-11-10T11:42:42;102.67;;;55.53;;
5499;SDS011;2772;42.700;23.304;2022-11-10T11:45:22;104.53;;;58.23;;
5499;SDS011;2772;42.700;23.304;2022-11-10T11:48:01;120.57;;;55.80;;
5499;SDS011;2772;42.700;23.304;2022-11-10T11:50:41;65.57;;;41.22;;
5499;SDS011;2772;42.700;23.304;2022-11-10T11:53:13;69.47;;;36.43;;
5499;SDS011;2772;42.700;23.304;2022-11-10T11:55:56;85.60;;;46.00;;
5499;SDS011;2772;42.700;23.304;2022-11-10T11:58:33;69.23;;;41.70;;
5499;SDS011;2772;42.700;23.304;2022-11-10T12:01:13;65.53;;;32.80;;
5499;SDS011;2772;42.700;23.304;2022-11-10T12:06:55;53.23;;;31.80;;
5499;SDS011;2772;42.700;23.304;2022-11-10T12:09:34;65.17;;;33.67;;
5499;SDS011;2772;42.700;23.304;2022-11-10T12:12:12;50.77;;;32.30;;
5499;SDS011;2772;42.700;23.304;2022-11-10T12:14:51;57.20;;;32.00;;
5499;SDS011;2772;42.700;23.304;2022-11-10T12:17:26;62.13;;;39.20;;
5499;SDS011;2772;42.700;23.304;2022-11-10T12:20:02;59.37;;;35.90;;
5499;SDS011;2772;42.700;23.304;2022-11-10T12:22:47;61.63;;;39.10;;
5499;SDS011;2772;42.700;23.304;2022-11-10T12:25:23;61.77;;;34.10;;
5499;SDS011;2772;42.700;23.304;2022-11-10T12:28:06;53.43;;;31.23;;
5499;SDS011;2772;42.700;23.304;2022-11-10T12:30:39;56.23;;;31.63;;
5499;SDS011;2772;42.700;23.304;2022-11-10T12:33:11;51.10;;;31.03;;
5499;SDS011;2772;42.700;23.304;2022-11-10T12:35:44;53.83;;;31.37;;
5499;SDS011;2772;42.700;23.304;2022-11-10T12:38:15;59.43;;;35.13;;
5499;SDS011;2772;42.700;23.304;2022-11-10T12:40:47;54.40;;;33.60;;
5499;SDS011;2772;42.700;23.304;2022-11-10T12:43:19;59.70;;;34.97;;
5499;SDS011;2772;42.700;23.304;2022-11-10T12:45:55;56.97;;;32.60;;
5499;SDS011;2772;42.700;23.304;2022-11-10T12:48:25;57.77;;;34.20;;
5499;SDS011;2772;42.700;23.304;2022-11-10T12:50:58;63.57;;;33.70;;
5499;SDS011;2772;42.700;23.304;2022-11-10T12:53:30;64.10;;;40.33;;
5499;SDS011;2772;42.700;23.304;2022-11-10T12:56:02;76.13;;;44.50;;
5499;SDS011;2772;42.700;23.304;2022-11-10T12:58:33;70.27;;;38.13;;
5499;SDS011;2772;42.700;23.304;2022-11-10T13:01:02;60.70;;;36.67;;
5499;SDS011;2772;42.700;23.304;2022-11-10T13:03:31;73.90;;;40.53;;
5499;SDS011;2772;42.700;23.304;2022-11-10T13:05:59;56.23;;;34.37;;
5499;SDS011;2772;42.700;23.304;2022-11-10T13:08:30;61.50;;;36.40;;
5499;SDS011;2772;42.700;23.304;2022-11-10T13:11:03;63.60;;;34.30;;
5499;SDS011;2772;42.700;23.304;2022-11-10T13:13:39;63.03;;;33.07;;
5499;SDS011;2772;42.700;23.304;2022-11-10T13:16:09;67.83;;;33.70;;
5499;SDS011;2772;42.700;23.304;2022-11-10T13:18:56;55.30;;;32.13;;
5499;SDS011;2772;42.700;23.304;2022-11-10T13:24:34;60.33;;;31.87;;
5499;SDS011;2772;42.700;23.304;2022-11-10T13:27:03;62.43;;;35.17;;
5499;SDS011;2772;42.700;23.304;2022-11-10T13:29:33;60.10;;;33.10;;
5499;SDS011;2772;42.700;23.304;2022-11-10T13:32:22;53.70;;;31.80;;
5499;SDS011;2772;42.700;23.304;2022-11-10T13:34:52;53.87;;;31.20;;
5499;SDS011;2772;42.700;23.304;2022-11-10T13:40:24;64.47;;;31.93;;
5499;SDS011;2772;42.700;23.304;2022-11-10T13:45:44;47.13;;;29.80;;
5499;SDS011;2772;42.700;23.304;2022-11-10T13:48:17;59.27;;;31.30;;
5499;SDS011;2772;42.700;23.304;2022-11-10T13:50:52;53.30;;;30.37;;
5499;SDS011;2772;42.700;23.304;2022-11-10T13:53:34;46.40;;;29.97;;
5499;SDS011;2772;42.700;23.304;2022-11-10T13:56:15;55.47;;;33.00;;
5499;SDS011;2772;42.700;23.304;2022-11-10T13:58:50;64.10;;;33.37;;
5499;SDS011;2772;42.700;23.304;2022-11-10T14:01:21;63.03;;;34.57;;
5499;SDS011;2772;42.700;23.304;2022-11-10T14:03:58;58.33;;;34.00;;
5499;SDS011;2772;42.700;23.304;2022-11-10T14:06:26;53.70;;;32.23;;
5499;SDS011;2772;42.700;23.304;2022-11-10T14:09:04;56.90;;;32.00;;
5499;SDS011;2772;42.700;23.304;2022-11-10T14:11:41;55.73;;;30.53;;
5499;SDS011;2772;42.700;23.304;2022-11-10T14:14:11;52.23;;;31.33;;
5499;SDS011;2772;42.700;23.304;2022-11-10T14:16:42;60.80;;;32.30;;
5499;SDS011;2772;42.700;23.304;2022-11-10T14:19:17;65.90;;;36.10;;
5499;SDS011;2772;42.700;23.304;2022-11-10T14:21:50;65.43;;;32.70;;
5499;SDS011;2772;42.700;23.304;2022-11-10T14:24:23;67.30;;;36.30;;
5499;SDS011;2772;42.700;23.304;2022-11-10T14:26:55;66.00;;;34.50;;
5499;SDS011;2772;42.700;23.304;2022-11-10T14:29:29;64.93;;;35.10;;
5499;SDS011;2772;42.700;23.304;2022-11-10T14:31:59;69.53;;;35.90;;
5499;SDS011;2772;42.700;23.304;2022-11-10T14:34:28;62.60;;;33.17;;
5499;SDS011;2772;42.700;23.304;2022-11-10T14:36:57;57.43;;;32.37;;
5499;SDS011;2772;42.700;23.304;2022-11-10T14:39:26;63.10;;;34.80;;
5499;SDS011;2772;42.700;23.304;2022-11-10T14:41:58;59.83;;;33.80;;
5499;SDS011;2772;42.700;23.304;2022-11-10T14:44:28;56.40;;;35.63;;
5499;SDS011;2772;42.700;23.304;2022-11-10T14:46:55;67.20;;;33.07;;
5499;SDS011;2772;42.700;23.304;2022-11-10T14:49:24;55.33;;;32.97;;
5499;SDS011;2772;42.700;23.304;2022-11-10T14:51:53;59.63;;;33.40;;
5499;SDS011;2772;42.700;23.304;2022-11-10T14:54:23;53.60;;;31.63;;
5499;SDS011;2772;42.700;23.304;2022-11-10T14:56:52;56.73;;;32.23;;
5499;SDS011;2772;42.700;23.304;2022-11-10T14:59:21;65.33;;;33.27;;
5499;SDS011;2772;42.700;23.304;2022-11-10T15:01:50;53.23;;;31.40;;
5499;SDS011;2772;42.700;23.304;2022-11-10T15:04:21;58.73;;;33.77;;